sensor_id;sensor_type;location;lat;lon;timestamp;noise_LAeq;noise_LA_min;noise_LA_max;noise_LA01;noise_LA95
64393;Laerm;50712;49.506;10.400;2023-05-07T00:00:23;30.20;28.47;32.20;;
64393;Laerm;50712;49.506;10.400;2023-05-07T00:00:53;30.65;28.86;32.40;;
64393;Laerm;50712;49.506;10.400;2023-05-07T00:01:25;30.40;28.92;32.16;;
64393;Laerm;50712;49.506;10.400;2023-05-07T00:01:56;30.71;28.72;32.86;;
64393;Laerm;50712;49.506;10.400;2023-05-07T00:02:26;30.96;28.82;37.55;;
64393;Laerm;50712;49.506;10.400;2023-05-07T00:02:56;31.14;29.30;35.17;;
64393;Laerm;50712;49.506;10.400;2023-05-07T00:03:27;33.79;29.55;40.96;;
64393;Laerm;50712;49.506;10.400;2023-05-07T00:03:57;35.39;30.37;43.43;;
64393;Laerm;50712;49.506;10.400;2023-05-07T00:04:28;34.36;30.72;40.69;;
64393;Laerm;50712;49.506;10.400;2023-05-07T00:04:58;33.91;30.10;39.75;;
64393;Laerm;50712;49.506;10.400;2023-05-07T00:05:28;31.64;28.77;38.62;;
64393;Laerm;50712;49.506;10.400;2023-05-07T00:05:59;30.92;28.78;34.97;;
64393;Laerm;50712;49.506;10.400;2023-05-07T00:06:30;30.44;28.70;32.26;;
64393;Laerm;50712;49.506;10.400;2023-05-07T00:07:00;30.61;28.97;33.70;;
64393;Laerm;50712;49.506;10.400;2023-05-07T00:07:30;30.99;29.20;33.18;;
64393;Laerm;50712;49.506;10.400;2023-05-07T00:08:01;30.34;28.70;34.58;;
64393;Laerm;50712;49.506;10.400;2023-05-07T00:08:31;29.81;28.05;34.88;;
64393;Laerm;50712;49.506;10.400;2023-05-07T00:09:02;29.56;27.99;32.00;;
64393;Laerm;50712;49.506;10.400;2023-05-07T00:09:33;30.46;28.60;32.61;;
64393;Laerm;50712;49.506;10.400;2023-05-07T00:10:04;30.71;28.94;32.59;;
64393;Laerm;50712;49.506;10.400;2023-05-07T00:10:36;29.75;28.42;31.89;;
64393;Laerm;50712;49.506;10.400;2023-05-07T00:11:06;29.72;28.47;32.04;;
64393;Laerm;50712;49.506;10.400;2023-05-07T00:12:07;29.70;28.21;31.66;;
64393;Laerm;50712;49.506;10.400;2023-05-07T00:12:38;29.96;28.64;31.86;;
64393;Laerm;50712;49.506;10.400;2023-05-07T00:13:08;29.96;28.12;31.87;;
64393;Laerm;50712;49.506;10.400;2023-05-07T00:13:39;30.02;28.02;32.15;;
64393;Laerm;50712;49.506;10.400;2023-05-07T00:14:09;29.96;28.25;32.74;;
64393;Laerm;50712;49.506;10.400;2023-05-07T00:14:39;29.78;28.40;31.50;;
64393;Laerm;50712;49.506;10.400;2023-05-07T00:15:10;29.79;28.24;34.07;;
64393;Laerm;50712;49.506;10.400;2023-05-07T00:15:41;30.01;28.47;33.24;;
64393;Laerm;50712;49.506;10.400;2023-05-07T00:16:11;30.57;28.65;34.32;;
64393;Laerm;50712;49.506;10.400;2023-05-07T00:16:41;31.91;28.55;37.47;;
64393;Laerm;50712;49.506;10.400;2023-05-07T00:17:12;30.15;28.43;35.46;;
64393;Laerm;50712;49.506;10.400;2023-05-07T00:17:42;30.41;28.35;33.74;;
64393;Laerm;50712;49.506;10.400;2023-05-07T00:18:12;30.21;28.72;34.84;;
64393;Laerm;50712;49.506;10.400;2023-05-07T00:19:13;30.23;28.62;32.08;;
64393;Laerm;50712;49.506;10.400;2023-05-07T00:19:43;30.38;28.38;32.81;;
64393;Laerm;50712;49.506;10.400;2023-05-07T00:20:14;30.05;28.48;32.10;;
64393;Laerm;50712;49.506;10.400;2023-05-07T00:20:44;31.03;28.33;33.88;;
64393;Laerm;50712;49.506;10.400;2023-05-07T00:21:14;31.45;29.18;35.18;;
64393;Laerm;50712;49.506;10.400;2023-05-07T00:21:45;30.61;28.11;32.66;;
64393;Laerm;50712;49.506;10.400;2023-05-07T00:22:15;31.11;28.16;38.15;;
64393;Laerm;50712;49.506;10.400;2023-05-07T00:22:45;30.22;28.74;36.46;;
64393;Laerm;50712;49.506;10.400;2023-05-07T00:23:16;30.42;28.63;33.06;;
64393;Laerm;50712;49.506;10.400;2023-05-07T00:23:46;29.83;28.27;33.99;;
64393;Laerm;50712;49.506;10.400;2023-05-07T00:24:17;30.31;28.54;34.15;;
64393;Laerm;50712;49.506;10.400;2023-05-07T00:24:47;31.76;29.40;37.85;;
64393;Laerm;50712;49.506;10.400;2023-05-07T00:25:18;35.14;31.06;39.76;;
64393;Laerm;50712;49.506;10.400;2023-05-07T00:25:49;36.16;30.64;43.31;;
64393;Laerm;50712;49.506;10.400;2023-05-07T00:26:20;35.35;29.66;42.12;;
64393;Laerm;50712;49.506;10.400;2023-05-07T00:26:53;33.51;29.08;39.24;;
64393;Laerm;50712;49.506;10.400;2023-05-07T00:27:24;32.00;28.94;37.55;;
64393;Laerm;50712;49.506;10.400;2023-05-07T00:27:55;30.59;28.26;34.43;;
64393;Laerm;50712;49.506;10.400;2023-05-07T00:28:55;29.50;28.15;31.69;;
64393;Laerm;50712;49.506;10.400;2023-05-07T00:29:26;29.83;28.22;33.42;;
64393;Laerm;50712;49.506;10.400;2023-05-07T00:29:56;31.18;28.40;36.69;;
64393;Laerm;50712;49.506;10.400;2023-05-07T00:30:26;29.33;27.95;31.30;;
64393;Laerm;50712;49.506;10.400;2023-05-07T00:30:57;29.70;28.04;31.87;;
64393;Laerm;50712;49.506;10.400;2023-05-07T00:31:27;29.41;28.11;31.59;;
64393;Laerm;50712;49.506;10.400;2023-05-07T00:31:57;29.25;27.93;33.29;;
64393;Laerm;50712;49.506;10.400;2023-05-07T00:32:28;29.69;27.94;31.42;;
64393;Laerm;50712;49.506;10.400;2023-05-07T00:32:58;30.97;28.30;35.08;;
64393;Laerm;50712;49.506;10.400;2023-05-07T00:33:28;30.74;28.42;38.49;;
64393;Laerm;50712;49.506;10.400;2023-05-07T00:33:59;29.82;28.17;33.36;;
64393;Laerm;50712;49.506;10.400;2023-05-07T00:34:29;29.81;28.49;31.70;;
64393;Laerm;50712;49.506;10.400;2023-05-07T00:34:59;29.87;28.19;32.01;;
64393;Laerm;50712;49.506;10.400;2023-05-07T00:35:30;30.15;28.41;32.59;;
64393;Laerm;50712;49.506;10.400;2023-05-07T00:36:00;29.74;28.45;31.46;;
64393;Laerm;50712;49.506;10.400;2023-05-07T00:36:32;31.13;28.71;43.52;;
64393;Laerm;50712;49.506;10.400;2023-05-07T00:37:02;30.51;28.48;34.69;;
64393;Laerm;50712;49.506;10.400;2023-05-07T00:37:32;29.61;28.08;31.31;;
64393;Laerm;50712;49.506;10.400;2023-05-07T00:38:03;30.55;28.55;33.26;;
64393;Laerm;50712;49.506;10.400;2023-05-07T00:39:03;30.78;28.72;34.15;;
64393;Laerm;50712;49.506;10.400;2023-05-07T00:39:35;30.98;28.94;33.61;;
64393;Laerm;50712;49.506;10.400;2023-05-07T00:40:06;31.68;29.41;35.35;;
64393;Laerm;50712;49.506;10.400;2023-05-07T00:40:37;32.57;29.31;39.51;;
64393;Laerm;50712;49.506;10.400;2023-05-07T00:41:08;30.90;28.98;34.59;;
64393;Laerm;50712;49.506;10.400;2023-05-07T00:41:38;30.95;29.24;33.25;;
64393;Laerm;50712;49.506;10.400;2023-05-07T00:42:08;30.78;29.20;33.02;;
64393;Laerm;50712;49.506;10.400;2023-05-07T00:42:39;30.39;28.67;34.07;;
64393;Laerm;50712;49.506;10.400;2023-05-07T00:43:09;30.22;28.60;34.59;;
64393;Laerm;50712;49.506;10.400;2023-05-07T00:43:39;30.47;28.85;33.68;;
64393;Laerm;50712;49.506;10.400;2023-05-07T00:44:10;29.25;28.04;30.71;;
64393;Laerm;50712;49.506;10.400;2023-05-07T00:44:40;29.25;27.87;31.12;;
64393;Laerm;50712;49.506;10.400;2023-05-07T00:45:10;30.66;28.39;37.63;;
64393;Laerm;50712;49.506;10.400;2023-05-07T00:45:41;32.57;28.64;40.29;;
64393;Laerm;50712;49.506;10.400;2023-05-07T00:46:42;31.50;28.61;35.62;;
64393;Laerm;50712;49.506;10.400;2023-05-07T00:47:13;30.54;28.39;34.68;;
64393;Laerm;50712;49.506;10.400;2023-05-07T00:47:43;30.37;28.26;33.31;;
64393;Laerm;50712;49.506;10.400;2023-05-07T00:48:14;31.26;29.15;34.94;;
64393;Laerm;50712;49.506;10.400;2023-05-07T00:48:44;30.07;28.26;36.54;;
64393;Laerm;50712;49.506;10.400;2023-05-07T00:49:15;30.10;28.47;33.19;;
64393;Laerm;50712;49.506;10.400;2023-05-07T00:49:46;29.67;28.36;34.43;;
64393;Laerm;50712;49.506;10.400;2023-05-07T00:50:16;29.90;28.56;32.36;;
64393;Laerm;50712;49.506;10.400;2023-05-07T00:50:47;30.27;28.22;40.56;;
64393;Laerm;50712;49.506;10.400;2023-05-07T00:51:18;29.77;28.11;32.80;;
64393;Laerm;50712;49.506;10.400;2023-05-07T00:51:49;29.52;28.25;31.30;;
64393;Laerm;50712;49.506;10.400;2023-05-07T00:52:21;30.16;28.12;36.88;;
64393;Laerm;50712;49.506;10.400;2023-05-07T00:52:54;37.16;29.90;46.77;;
64393;Laerm;50712;49.506;10.400;2023-05-07T00:53:25;40.08;32.53;47.17;;
64393;Laerm;50712;49.506;10.400;2023-05-07T00:53:55;39.29;32.49;49.10;;
64393;Laerm;50712;49.506;10.400;2023-05-07T00:54:25;36.88;30.55;43.31;;
64393;Laerm;50712;49.506;10.400;2023-05-07T00:54:56;35.02;29.64;40.80;;
64393;Laerm;50712;49.506;10.400;2023-05-07T00:55:27;32.94;29.41;39.62;;
64393;Laerm;50712;49.506;10.400;2023-05-07T00:55:57;32.23;29.07;37.79;;
64393;Laerm;50712;49.506;10.400;2023-05-07T00:56:28;37.41;30.76;45.51;;
64393;Laerm;50712;49.506;10.400;2023-05-07T00:56:58;39.04;33.27;45.87;;
64393;Laerm;50712;49.506;10.400;2023-05-07T00:57:29;37.28;31.15;47.73;;
64393;Laerm;50712;49.506;10.400;2023-05-07T00:57:59;34.13;30.00;40.44;;
64393;Laerm;50712;49.506;10.400;2023-05-07T00:58:30;33.27;29.98;41.47;;
64393;Laerm;50712;49.506;10.400;2023-05-07T00:59:02;31.47;29.09;36.04;;
64393;Laerm;50712;49.506;10.400;2023-05-07T00:59:33;30.67;28.06;38.25;;
64393;Laerm;50712;49.506;10.400;2023-05-07T01:00:04;30.21;28.53;32.36;;
64393;Laerm;50712;49.506;10.400;2023-05-07T01:00:35;30.82;28.68;33.68;;
64393;Laerm;50712;49.506;10.400;2023-05-07T01:01:06;29.87;28.23;33.32;;
64393;Laerm;50712;49.506;10.400;2023-05-07T01:01:36;30.36;28.56;33.52;;
64393;Laerm;50712;49.506;10.400;2023-05-07T01:02:41;29.94;28.12;38.87;;
64393;Laerm;50712;49.506;10.400;2023-05-07T01:03:11;29.45;28.00;39.00;;
64393;Laerm;50712;49.506;10.400;2023-05-07T01:03:42;29.29;27.97;41.04;;
64393;Laerm;50712;49.506;10.400;2023-05-07T01:04:13;29.44;28.20;30.78;;
64393;Laerm;50712;49.506;10.400;2023-05-07T01:04:43;29.71;28.33;36.98;;
64393;Laerm;50712;49.506;10.400;2023-05-07T01:05:15;29.99;28.14;34.55;;
64393;Laerm;50712;49.506;10.400;2023-05-07T01:05:47;31.70;28.79;37.54;;
64393;Laerm;50712;49.506;10.400;2023-05-07T01:06:18;33.07;29.08;38.71;;
64393;Laerm;50712;49.506;10.400;2023-05-07T01:06:52;33.05;30.26;38.26;;
64393;Laerm;50712;49.506;10.400;2023-05-07T01:07:23;33.11;29.36;38.27;;
64393;Laerm;50712;49.506;10.400;2023-05-07T01:07:53;33.26;30.18;38.74;;
64393;Laerm;50712;49.506;10.400;2023-05-07T01:08:25;33.19;29.16;40.49;;
64393;Laerm;50712;49.506;10.400;2023-05-07T01:08:58;32.34;28.75;37.62;;
64393;Laerm;50712;49.506;10.400;2023-05-07T01:09:29;30.73;28.48;34.28;;
64393;Laerm;50712;49.506;10.400;2023-05-07T01:10:00;31.38;28.48;34.81;;
64393;Laerm;50712;49.506;10.400;2023-05-07T01:10:31;29.69;28.26;31.44;;
64393;Laerm;50712;49.506;10.400;2023-05-07T01:11:02;29.48;28.16;31.32;;
64393;Laerm;50712;49.506;10.400;2023-05-07T01:12:03;29.53;27.82;31.41;;
64393;Laerm;50712;49.506;10.400;2023-05-07T01:12:35;30.89;28.70;34.20;;
64393;Laerm;50712;49.506;10.400;2023-05-07T01:13:06;29.91;27.96;32.65;;
64393;Laerm;50712;49.506;10.400;2023-05-07T01:13:38;29.84;28.32;31.64;;
64393;Laerm;50712;49.506;10.400;2023-05-07T01:14:09;29.45;27.83;31.07;;
64393;Laerm;50712;49.506;10.400;2023-05-07T01:14:40;31.72;28.26;37.19;;
64393;Laerm;50712;49.506;10.400;2023-05-07T01:15:11;29.99;28.27;33.47;;
64393;Laerm;50712;49.506;10.400;2023-05-07T01:15:42;30.43;28.21;33.08;;
64393;Laerm;50712;49.506;10.400;2023-05-07T01:16:13;29.83;27.85;32.73;;
64393;Laerm;50712;49.506;10.400;2023-05-07T01:16:43;31.11;28.82;37.05;;
64393;Laerm;50712;49.506;10.400;2023-05-07T01:17:14;31.09;28.36;37.45;;
64393;Laerm;50712;49.506;10.400;2023-05-07T01:17:44;31.09;28.36;37.45;;
64393;Laerm;50712;49.506;10.400;2023-05-07T01:18:24;30.12;28.32;34.23;;
64393;Laerm;50712;49.506;10.400;2023-05-07T01:18:55;30.58;28.18;33.86;;
64393;Laerm;50712;49.506;10.400;2023-05-07T01:19:28;31.34;28.67;35.41;;
64393;Laerm;50712;49.506;10.400;2023-05-07T01:20:00;31.30;28.46;35.18;;
64393;Laerm;50712;49.506;10.400;2023-05-07T01:20:30;30.11;28.06;33.44;;
64393;Laerm;50712;49.506;10.400;2023-05-07T01:21:03;30.22;28.16;33.80;;
64393;Laerm;50712;49.506;10.400;2023-05-07T01:21:36;30.10;28.04;35.45;;
64393;Laerm;50712;49.506;10.400;2023-05-07T01:22:50;29.94;27.91;34.87;;
64393;Laerm;50712;49.506;10.400;2023-05-07T01:23:51;29.31;27.97;31.96;;
64393;Laerm;50712;49.506;10.400;2023-05-07T01:24:22;29.63;28.09;31.89;;
64393;Laerm;50712;49.506;10.400;2023-05-07T01:24:53;29.38;28.07;32.42;;
64393;Laerm;50712;49.506;10.400;2023-05-07T01:25:24;29.66;27.93;31.40;;
64393;Laerm;50712;49.506;10.400;2023-05-07T01:25:57;29.86;28.24;32.89;;
64393;Laerm;50712;49.506;10.400;2023-05-07T01:26:30;29.69;28.15;37.37;;
64393;Laerm;50712;49.506;10.400;2023-05-07T01:27:01;30.23;28.25;33.15;;
64393;Laerm;50712;49.506;10.400;2023-05-07T01:27:34;30.12;28.40;33.70;;
64393;Laerm;50712;49.506;10.400;2023-05-07T01:28:06;29.66;27.93;31.25;;
64393;Laerm;50712;49.506;10.400;2023-05-07T01:28:39;29.32;28.30;30.74;;
64393;Laerm;50712;49.506;10.400;2023-05-07T01:29:10;30.42;28.49;34.11;;
64393;Laerm;50712;49.506;10.400;2023-05-07T01:29:40;31.75;28.71;36.20;;
64393;Laerm;50712;49.506;10.400;2023-05-07T01:30:11;32.22;29.21;39.13;;
64393;Laerm;50712;49.506;10.400;2023-05-07T01:30:46;31.81;28.63;38.25;;
64393;Laerm;50712;49.506;10.400;2023-05-07T01:31:17;31.81;28.86;36.68;;
64393;Laerm;50712;49.506;10.400;2023-05-07T01:31:48;30.19;28.06;33.75;;
64393;Laerm;50712;49.506;10.400;2023-05-07T01:32:31;30.05;28.39;34.06;;
64393;Laerm;50712;49.506;10.400;2023-05-07T01:33:06;30.31;28.49;36.53;;
64393;Laerm;50712;49.506;10.400;2023-05-07T01:33:40;37.21;30.27;45.76;;
64393;Laerm;50712;49.506;10.400;2023-05-07T01:34:12;40.12;34.74;45.43;;
64393;Laerm;50712;49.506;10.400;2023-05-07T01:34:44;36.96;31.67;43.77;;
64393;Laerm;50712;49.506;10.400;2023-05-07T01:35:19;34.66;30.63;39.43;;
64393;Laerm;50712;49.506;10.400;2023-05-07T01:35:53;33.34;29.15;38.21;;
64393;Laerm;50712;49.506;10.400;2023-05-07T01:36:56;30.79;28.69;34.15;;
64393;Laerm;50712;49.506;10.400;2023-05-07T01:37:29;30.66;28.23;33.40;;
64393;Laerm;50712;49.506;10.400;2023-05-07T01:38:00;29.46;27.87;31.47;;
64393;Laerm;50712;49.506;10.400;2023-05-07T01:38:31;32.25;28.06;38.07;;
64393;Laerm;50712;49.506;10.400;2023-05-07T01:39:01;34.28;28.04;44.94;;
64393;Laerm;50712;49.506;10.400;2023-05-07T01:39:32;29.47;27.90;33.70;;
64393;Laerm;50712;49.506;10.400;2023-05-07T01:40:04;29.50;27.94;34.55;;
64393;Laerm;50712;49.506;10.400;2023-05-07T01:40:34;29.02;27.72;30.21;;
64393;Laerm;50712;49.506;10.400;2023-05-07T01:41:06;29.31;27.72;31.25;;
64393;Laerm;50712;49.506;10.400;2023-05-07T01:41:38;29.19;27.69;32.21;;
64393;Laerm;50712;49.506;10.400;2023-05-07T01:42:08;29.71;28.01;32.07;;
64393;Laerm;50712;49.506;10.400;2023-05-07T01:42:40;29.94;28.50;31.99;;
64393;Laerm;50712;49.506;10.400;2023-05-07T01:43:11;29.59;28.31;31.12;;
64393;Laerm;50712;49.506;10.400;2023-05-07T01:43:42;29.25;27.79;30.34;;
64393;Laerm;50712;49.506;10.400;2023-05-07T01:44:14;30.01;28.31;32.77;;
64393;Laerm;50712;49.506;10.400;2023-05-07T01:44:45;29.95;28.27;32.16;;
64393;Laerm;50712;49.506;10.400;2023-05-07T01:45:16;29.20;27.68;30.97;;
64393;Laerm;50712;49.506;10.400;2023-05-07T01:45:46;29.25;27.83;31.08;;
64393;Laerm;50712;49.506;10.400;2023-05-07T01:46:19;29.31;27.99;31.36;;
64393;Laerm;50712;49.506;10.400;2023-05-07T01:46:50;29.75;28.22;31.39;;
64393;Laerm;50712;49.506;10.400;2023-05-07T01:47:21;30.19;28.55;32.45;;
64393;Laerm;50712;49.506;10.400;2023-05-07T01:48:24;29.71;28.30;31.32;;
64393;Laerm;50712;49.506;10.400;2023-05-07T01:48:54;29.72;28.14;31.74;;
64393;Laerm;50712;49.506;10.400;2023-05-07T01:49:25;29.81;28.28;31.87;;
64393;Laerm;50712;49.506;10.400;2023-05-07T01:49:56;30.36;28.37;34.24;;
64393;Laerm;50712;49.506;10.400;2023-05-07T01:50:27;33.30;29.29;40.57;;
64393;Laerm;50712;49.506;10.400;2023-05-07T01:50:58;35.47;28.84;42.06;;
64393;Laerm;50712;49.506;10.400;2023-05-07T01:51:28;31.70;28.96;35.55;;
64393;Laerm;50712;49.506;10.400;2023-05-07T01:51:59;30.38;28.60;34.38;;
64393;Laerm;50712;49.506;10.400;2023-05-07T01:52:31;29.76;28.25;35.15;;
64393;Laerm;50712;49.506;10.400;2023-05-07T01:53:01;29.58;28.21;31.11;;
64393;Laerm;50712;49.506;10.400;2023-05-07T01:53:39;29.94;28.31;32.41;;
64393;Laerm;50712;49.506;10.400;2023-05-07T01:54:10;29.41;27.99;32.54;;
64393;Laerm;50712;49.506;10.400;2023-05-07T01:54:41;29.18;27.94;30.67;;
64393;Laerm;50712;49.506;10.400;2023-05-07T01:55:11;29.43;28.10;33.48;;
64393;Laerm;50712;49.506;10.400;2023-05-07T01:55:42;29.21;27.81;35.57;;
64393;Laerm;50712;49.506;10.400;2023-05-07T01:56:13;29.16;28.06;32.77;;
64393;Laerm;50712;49.506;10.400;2023-05-07T01:56:45;29.29;28.06;31.39;;
64393;Laerm;50712;49.506;10.400;2023-05-07T01:57:18;29.67;27.87;31.57;;
64393;Laerm;50712;49.506;10.400;2023-05-07T01:57:48;29.45;28.09;33.08;;
64393;Laerm;50712;49.506;10.400;2023-05-07T01:58:19;29.75;28.26;31.91;;
64393;Laerm;50712;49.506;10.400;2023-05-07T01:58:49;29.66;28.03;32.21;;
64393;Laerm;50712;49.506;10.400;2023-05-07T01:59:21;30.07;28.12;34.18;;
64393;Laerm;50712;49.506;10.400;2023-05-07T01:59:51;29.66;27.88;34.89;;
64393;Laerm;50712;49.506;10.400;2023-05-07T02:00:22;29.23;28.02;32.84;;
64393;Laerm;50712;49.506;10.400;2023-05-07T02:00:53;29.11;27.64;32.24;;
64393;Laerm;50712;49.506;10.400;2023-05-07T02:01:23;29.25;27.84;30.45;;
64393;Laerm;50712;49.506;10.400;2023-05-07T02:01:54;29.33;27.95;31.49;;
64393;Laerm;50712;49.506;10.400;2023-05-07T02:02:24;29.38;28.03;31.68;;
64393;Laerm;50712;49.506;10.400;2023-05-07T02:02:57;29.56;28.01;31.08;;
64393;Laerm;50712;49.506;10.400;2023-05-07T02:03:39;29.73;28.11;33.97;;
64393;Laerm;50712;49.506;10.400;2023-05-07T02:04:16;29.78;28.19;32.80;;
64393;Laerm;50712;49.506;10.400;2023-05-07T02:04:46;29.60;28.05;34.28;;
64393;Laerm;50712;49.506;10.400;2023-05-07T02:05:17;29.44;28.16;31.76;;
64393;Laerm;50712;49.506;10.400;2023-05-07T02:05:51;29.43;27.84;31.30;;
64393;Laerm;50712;49.506;10.400;2023-05-07T02:06:37;29.52;27.80;34.54;;
64393;Laerm;50712;49.506;10.400;2023-05-07T02:07:09;29.00;27.71;33.61;;
64393;Laerm;50712;49.506;10.400;2023-05-07T02:07:41;31.84;28.23;37.26;;
64393;Laerm;50712;49.506;10.400;2023-05-07T02:08:12;29.40;27.93;32.73;;
64393;Laerm;50712;49.506;10.400;2023-05-07T02:08:42;29.20;28.01;31.76;;
64393;Laerm;50712;49.506;10.400;2023-05-07T02:09:14;28.96;27.76;30.28;;
64393;Laerm;50712;49.506;10.400;2023-05-07T02:09:47;29.19;27.76;39.79;;
64393;Laerm;50712;49.506;10.400;2023-05-07T02:10:17;29.01;27.68;33.02;;
64393;Laerm;50712;49.506;10.400;2023-05-07T02:10:47;29.05;27.61;33.39;;
64393;Laerm;50712;49.506;10.400;2023-05-07T02:11:18;28.99;27.77;30.80;;
64393;Laerm;50712;49.506;10.400;2023-05-07T02:11:48;43.75;27.73;66.12;;
64393;Laerm;50712;49.506;10.400;2023-05-07T02:12:19;29.01;27.62;30.52;;
64393;Laerm;50712;49.506;10.400;2023-05-07T02:12:50;28.96;27.82;30.36;;
64393;Laerm;50712;49.506;10.400;2023-05-07T02:13:20;28.96;27.84;30.32;;
64393;Laerm;50712;49.506;10.400;2023-05-07T02:13:52;28.97;27.62;30.45;;
64393;Laerm;50712;49.506;10.400;2023-05-07T02:14:23;29.21;27.55;33.51;;
64393;Laerm;50712;49.506;10.400;2023-05-07T02:14:54;29.55;27.66;32.60;;
64393;Laerm;50712;49.506;10.400;2023-05-07T02:15:24;29.66;27.98;32.12;;
64393;Laerm;50712;49.506;10.400;2023-05-07T02:15:56;29.07;27.78;30.53;;
64393;Laerm;50712;49.506;10.400;2023-05-07T02:16:28;29.17;27.87;31.22;;
64393;Laerm;50712;49.506;10.400;2023-05-07T02:16:58;29.57;28.02;31.81;;
64393;Laerm;50712;49.506;10.400;2023-05-07T02:17:29;29.20;27.86;32.09;;
64393;Laerm;50712;49.506;10.400;2023-05-07T02:18:04;38.81;28.00;55.89;;
64393;Laerm;50712;49.506;10.400;2023-05-07T02:18:36;40.81;31.35;53.28;;
64393;Laerm;50712;49.506;10.400;2023-05-07T02:19:37;32.22;28.78;43.85;;
64393;Laerm;50712;49.506;10.400;2023-05-07T02:20:07;31.47;28.94;35.61;;
64393;Laerm;50712;49.506;10.400;2023-05-07T02:20:43;30.47;28.19;37.03;;
64393;Laerm;50712;49.506;10.400;2023-05-07T02:21:13;29.49;28.12;33.10;;
64393;Laerm;50712;49.506;10.400;2023-05-07T02:21:44;30.21;28.23;35.72;;
64393;Laerm;50712;49.506;10.400;2023-05-07T02:22:14;31.87;28.16;41.26;;
64393;Laerm;50712;49.506;10.400;2023-05-07T02:22:45;30.86;28.07;43.39;;
64393;Laerm;50712;49.506;10.400;2023-05-07T02:23:16;29.09;27.67;31.65;;
64393;Laerm;50712;49.506;10.400;2023-05-07T02:23:46;29.29;27.98;31.78;;
64393;Laerm;50712;49.506;10.400;2023-05-07T02:24:16;31.85;28.03;38.62;;
64393;Laerm;50712;49.506;10.400;2023-05-07T02:24:47;29.17;27.76;32.68;;
64393;Laerm;50712;49.506;10.400;2023-05-07T02:25:17;29.59;28.08;31.85;;
64393;Laerm;50712;49.506;10.400;2023-05-07T02:25:47;29.52;27.85;31.97;;
64393;Laerm;50712;49.506;10.400;2023-05-07T02:26:18;29.40;27.82;34.47;;
64393;Laerm;50712;49.506;10.400;2023-05-07T02:26:48;29.49;28.01;31.41;;
64393;Laerm;50712;49.506;10.400;2023-05-07T02:27:19;29.09;27.66;34.36;;
64393;Laerm;50712;49.506;10.400;2023-05-07T02:27:49;29.15;28.03;33.82;;
64393;Laerm;50712;49.506;10.400;2023-05-07T02:28:20;29.06;27.93;30.21;;
64393;Laerm;50712;49.506;10.400;2023-05-07T02:28:58;29.28;27.76;32.86;;
64393;Laerm;50712;49.506;10.400;2023-05-07T02:29:29;29.13;27.83;30.99;;
64393;Laerm;50712;49.506;10.400;2023-05-07T02:29:59;29.50;27.79;33.22;;
64393;Laerm;50712;49.506;10.400;2023-05-07T02:30:30;29.40;27.87;32.80;;
64393;Laerm;50712;49.506;10.400;2023-05-07T02:31:03;29.47;28.13;31.66;;
64393;Laerm;50712;49.506;10.400;2023-05-07T02:31:34;29.46;28.23;32.96;;
64393;Laerm;50712;49.506;10.400;2023-05-07T02:32:04;29.64;27.73;40.26;;
64393;Laerm;50712;49.506;10.400;2023-05-07T02:32:35;29.99;28.33;32.33;;
64393;Laerm;50712;49.506;10.400;2023-05-07T02:33:05;29.84;27.81;35.08;;
64393;Laerm;50712;49.506;10.400;2023-05-07T02:33:37;29.20;27.77;32.68;;
64393;Laerm;50712;49.506;10.400;2023-05-07T02:34:40;29.39;28.00;34.85;;
64393;Laerm;50712;49.506;10.400;2023-05-07T02:35:11;29.46;27.74;36.88;;
64393;Laerm;50712;49.506;10.400;2023-05-07T02:36:12;29.43;28.07;38.42;;
64393;Laerm;50712;49.506;10.400;2023-05-07T02:37:03;29.25;27.75;31.35;;
64393;Laerm;50712;49.506;10.400;2023-05-07T02:37:33;34.79;28.32;48.67;;
64393;Laerm;50712;49.506;10.400;2023-05-07T02:38:04;29.85;28.19;34.73;;
64393;Laerm;50712;49.506;10.400;2023-05-07T02:38:36;29.66;28.14;39.36;;
64393;Laerm;50712;49.506;10.400;2023-05-07T02:39:06;29.66;27.88;31.92;;
64393;Laerm;50712;49.506;10.400;2023-05-07T02:39:37;29.58;27.86;31.88;;
64393;Laerm;50712;49.506;10.400;2023-05-07T02:40:07;29.07;27.58;30.56;;
64393;Laerm;50712;49.506;10.400;2023-05-07T02:40:38;33.65;28.05;48.72;;
64393;Laerm;50712;49.506;10.400;2023-05-07T02:41:09;29.70;27.68;38.58;;
64393;Laerm;50712;49.506;10.400;2023-05-07T02:42:10;29.30;27.70;33.87;;
64393;Laerm;50712;49.506;10.400;2023-05-07T02:42:41;29.37;27.96;34.22;;
64393;Laerm;50712;49.506;10.400;2023-05-07T02:43:11;29.65;28.07;32.99;;
64393;Laerm;50712;49.506;10.400;2023-05-07T02:43:44;39.15;29.67;47.37;;
64393;Laerm;50712;49.506;10.400;2023-05-07T02:44:15;41.35;33.72;47.48;;
64393;Laerm;50712;49.506;10.400;2023-05-07T02:44:46;35.20;29.36;42.21;;
64393;Laerm;50712;49.506;10.400;2023-05-07T02:45:17;31.02;28.89;34.99;;
64393;Laerm;50712;49.506;10.400;2023-05-07T02:45:48;30.36;28.32;35.81;;
64393;Laerm;50712;49.506;10.400;2023-05-07T02:46:19;30.49;28.26;35.24;;
64393;Laerm;50712;49.506;10.400;2023-05-07T02:46:55;30.08;27.89;38.41;;
64393;Laerm;50712;49.506;10.400;2023-05-07T02:47:25;29.92;28.05;34.86;;
64393;Laerm;50712;49.506;10.400;2023-05-07T02:47:58;30.27;28.16;35.39;;
64393;Laerm;50712;49.506;10.400;2023-05-07T02:48:28;30.57;28.39;36.44;;
64393;Laerm;50712;49.506;10.400;2023-05-07T02:48:59;30.81;28.37;39.29;;
64393;Laerm;50712;49.506;10.400;2023-05-07T02:49:29;30.46;28.25;38.03;;
64393;Laerm;50712;49.506;10.400;2023-05-07T02:50:00;30.36;28.17;36.65;;
64393;Laerm;50712;49.506;10.400;2023-05-07T02:50:30;31.19;28.34;38.54;;
64393;Laerm;50712;49.506;10.400;2023-05-07T02:51:03;31.08;28.76;38.55;;
64393;Laerm;50712;49.506;10.400;2023-05-07T02:51:34;31.10;28.17;39.25;;
64393;Laerm;50712;49.506;10.400;2023-05-07T02:52:07;32.14;28.59;42.23;;
64393;Laerm;50712;49.506;10.400;2023-05-07T02:52:38;42.08;29.25;58.45;;
64393;Laerm;50712;49.506;10.400;2023-05-07T02:53:08;52.02;29.40;68.10;;
64393;Laerm;50712;49.506;10.400;2023-05-07T02:53:39;43.85;28.94;59.96;;
64393;Laerm;50712;49.506;10.400;2023-05-07T02:54:09;31.50;28.62;37.26;;
64393;Laerm;50712;49.506;10.400;2023-05-07T02:54:40;32.08;28.68;39.11;;
64393;Laerm;50712;49.506;10.400;2023-05-07T02:55:10;31.74;29.11;39.84;;
64393;Laerm;50712;49.506;10.400;2023-05-07T02:55:40;31.41;28.75;36.30;;
64393;Laerm;50712;49.506;10.400;2023-05-07T02:56:11;34.46;29.76;41.38;;
64393;Laerm;50712;49.506;10.400;2023-05-07T02:56:41;37.57;30.74;52.06;;
64393;Laerm;50712;49.506;10.400;2023-05-07T02:57:11;39.45;30.64;53.30;;
64393;Laerm;50712;49.506;10.400;2023-05-07T02:57:42;40.28;29.84;56.37;;
64393;Laerm;50712;49.506;10.400;2023-05-07T02:58:12;39.73;29.79;54.97;;
64393;Laerm;50712;49.506;10.400;2023-05-07T02:58:44;39.11;29.88;54.49;;
64393;Laerm;50712;49.506;10.400;2023-05-07T02:59:16;42.48;29.59;59.58;;
64393;Laerm;50712;49.506;10.400;2023-05-07T02:59:46;42.15;29.46;58.66;;
64393;Laerm;50712;49.506;10.400;2023-05-07T03:00:19;45.89;29.93;58.81;;